Terminal Aerodrome Forecast
Issued by NWS Pocatello, ID

Home | Current Version | Previous Version | Text Only | Print | Product List | Glossary On
Versions: 1 2 3 4 5 6 7 8 9 10 11 12 13 14 15 16 17 18 19 20 21 22 23 24 25 26
551
FTUS45 KPIH 110238 AAA
TAFPIH
TAF AMD
KPIH 110238Z 1103/1124 21015KT P6SM SCT015 BKN050 OVC160
      TEMPO 1103/1105 BKN015 OVC050
     FM110500 21010KT P6SM SCT008 OVC015
     FM111100 24015KT P6SM OVC008
     FM111400 23015KT P6SM OVC004
     FM111900 23015KT P6SM SCT008 OVC025=

USA.gov is the U.S. government's official web portal to all federal, state and local government web resources and services.